createdAt,value
2023-05-18T00:00:41.275Z,11.00
2023-05-18T00:03:08.663Z,11.30
2023-05-18T00:05:36.799Z,11.10
2023-05-18T00:08:04.373Z,10.70
2023-05-18T00:10:31.704Z,11.00
2023-05-18T00:12:58.967Z,10.90
2023-05-18T00:15:26.279Z,10.90
2023-05-18T00:17:54.063Z,11.20
2023-05-18T00:20:22.100Z,10.90
2023-05-18T00:22:50.821Z,10.60
2023-05-18T00:25:18.143Z,10.70
2023-05-18T00:27:45.622Z,10.70
2023-05-18T00:30:13.752Z,11.00
2023-05-18T00:32:41.118Z,10.80
2023-05-18T00:35:08.501Z,10.70
2023-05-18T00:37:35.754Z,10.70
2023-05-18T00:40:06.521Z,10.80
2023-05-18T00:42:33.792Z,10.40
2023-05-18T00:45:01.206Z,10.60
2023-05-18T00:47:28.603Z,10.50
2023-05-18T00:49:56.050Z,10.40
2023-05-18T00:52:23.767Z,10.40
2023-05-18T00:54:51.308Z,10.70
2023-05-18T00:57:19.139Z,10.50
2023-05-18T00:59:47.568Z,10.40
2023-05-18T01:02:14.987Z,10.30
2023-05-18T01:04:43.056Z,10.40
2023-05-18T01:07:11.102Z,10.50
2023-05-18T01:09:38.404Z,10.60
2023-05-18T01:12:27.302Z,10.40
2023-05-18T01:15:05.015Z,10.60
2023-05-18T01:17:49.725Z,10.50
2023-05-18T01:20:38.884Z,10.50
2023-05-18T01:23:21.473Z,10.50
2023-05-18T01:25:54.332Z,10.50
2023-05-18T01:28:28.476Z,10.30
2023-05-18T01:30:56.301Z,10.80
2023-05-18T01:33:32.276Z,10.50
2023-05-18T01:36:07.638Z,10.40
2023-05-18T01:38:35.036Z,10.30
2023-05-18T01:41:24.333Z,10.30
2023-05-18T01:44:18.198Z,10.50
2023-05-18T01:47:14.131Z,10.50
2023-05-18T01:49:59.717Z,10.90
2023-05-18T01:52:56.834Z,10.60
2023-05-18T01:55:25.042Z,10.50
2023-05-18T01:57:53.683Z,10.30
2023-05-18T02:00:21.101Z,10.50
2023-05-18T02:02:48.354Z,10.50
2023-05-18T02:05:15.795Z,10.70
2023-05-18T02:07:44.163Z,10.80
2023-05-18T02:10:12.052Z,10.60
2023-05-18T02:12:39.264Z,10.40
2023-05-18T02:15:07.356Z,10.40
2023-05-18T02:17:38.112Z,10.50
2023-05-18T02:20:10.102Z,10.80
2023-05-18T02:22:37.583Z,10.90
2023-05-18T02:25:05.728Z,10.80
2023-05-18T02:27:34.955Z,10.90
2023-05-18T02:30:04.210Z,10.50
2023-05-18T02:32:38.276Z,10.60
2023-05-18T02:35:08.877Z,10.30
2023-05-18T02:37:40.093Z,10.40
2023-05-18T02:40:09.909Z,9.90
2023-05-18T02:42:37.181Z,10.20
2023-05-18T02:45:04.703Z,9.90
2023-05-18T02:47:31.937Z,9.30
2023-05-18T02:49:59.193Z,9.40
2023-05-18T02:52:27.531Z,9.50
2023-05-18T02:54:56.077Z,10.10
2023-05-18T02:57:23.290Z,9.90
2023-05-18T02:59:50.797Z,10.20
2023-05-18T03:02:18.188Z,10.20
2023-05-18T03:04:48.759Z,10.30
2023-05-18T03:07:16.682Z,10.50
2023-05-18T03:09:43.897Z,10.20
2023-05-18T03:12:11.388Z,10.40
2023-05-18T03:14:38.724Z,10.00
2023-05-18T03:17:06.201Z,10.00
2023-05-18T03:19:34.878Z,10.00
2023-05-18T03:22:02.218Z,10.30
2023-05-18T03:24:30.285Z,10.40
2023-05-18T03:26:57.707Z,10.40
2023-05-18T03:29:24.907Z,10.40
2023-05-18T03:31:52.248Z,10.40
2023-05-18T03:34:19.486Z,10.20
2023-05-18T03:36:47.297Z,10.40
2023-05-18T03:39:14.522Z,10.00
2023-05-18T03:41:42.047Z,10.20
2023-05-18T03:44:09.340Z,10.30
2023-05-18T03:46:36.717Z,10.30
2023-05-18T03:49:05.079Z,10.20
2023-05-18T03:51:32.503Z,10.40
2023-05-18T03:53:59.721Z,10.60
2023-05-18T03:56:26.948Z,10.50
2023-05-18T03:58:54.167Z,10.30
2023-05-18T04:01:23.729Z,9.90
2023-05-18T04:03:51.498Z,9.90
2023-05-18T04:06:22.522Z,10.20
2023-05-18T04:08:50.283Z,10.10
2023-05-18T04:11:17.629Z,10.20
2023-05-18T04:13:44.970Z,10.10
2023-05-18T04:16:13.458Z,10.10
2023-05-18T04:18:42.192Z,10.20
2023-05-18T04:21:09.605Z,10.10
2023-05-18T04:23:39.073Z,10.20
2023-05-18T04:26:06.822Z,10.40
2023-05-18T04:28:34.213Z,10.20
2023-05-18T04:31:01.887Z,10.60
2023-05-18T04:33:32.706Z,10.60
2023-05-18T04:36:04.869Z,10.60
2023-05-18T04:38:34.556Z,10.40
2023-05-18T04:41:05.349Z,10.50
2023-05-18T04:43:32.566Z,10.50
2023-05-18T04:46:00.200Z,10.50
2023-05-18T04:48:29.250Z,10.20
2023-05-18T04:50:56.495Z,10.60
2023-05-18T04:53:23.778Z,10.40
2023-05-18T04:55:51.101Z,10.50
2023-05-18T04:58:18.544Z,10.40
2023-05-18T05:00:45.777Z,10.60
2023-05-18T05:03:13.126Z,10.40
2023-05-18T05:05:40.560Z,10.60
2023-05-18T05:08:07.808Z,10.80
2023-05-18T05:10:35.029Z,11.00
2023-05-18T05:13:02.231Z,11.10
2023-05-18T05:15:29.807Z,11.00
2023-05-18T05:17:58.399Z,11.20
2023-05-18T05:20:25.650Z,11.10
2023-05-18T05:22:52.930Z,11.30
2023-05-18T05:25:20.799Z,10.70
2023-05-18T05:27:48.034Z,11.00
2023-05-18T05:30:15.318Z,11.50
2023-05-18T05:32:42.619Z,11.60
2023-05-18T05:35:10.104Z,11.30
2023-05-18T05:37:37.440Z,11.10
2023-05-18T05:40:07.920Z,11.50
2023-05-18T05:42:35.525Z,11.70
2023-05-18T05:45:03.028Z,11.50
2023-05-18T05:47:30.286Z,11.60
2023-05-18T05:49:57.467Z,12.00
2023-05-18T05:52:24.761Z,11.90
2023-05-18T05:54:51.966Z,11.70
2023-05-18T05:57:19.177Z,11.90
2023-05-18T05:59:46.593Z,12.10
2023-05-18T06:02:13.872Z,11.90
2023-05-18T06:04:41.361Z,12.20
2023-05-18T06:07:08.593Z,12.20
2023-05-18T06:09:35.931Z,11.90
2023-05-18T06:12:03.341Z,12.20
2023-05-18T06:14:30.574Z,12.20
2023-05-18T06:16:57.950Z,12.20
2023-05-18T06:19:25.338Z,12.30
2023-05-18T06:21:52.553Z,12.30
2023-05-18T06:24:19.779Z,12.30
2023-05-18T06:26:46.988Z,12.40
2023-05-18T06:29:14.223Z,12.40
2023-05-18T06:31:41.530Z,12.60
2023-05-18T06:34:08.761Z,12.30
2023-05-18T06:36:36.540Z,12.20
2023-05-18T06:39:05.127Z,12.30
2023-05-18T06:41:32.926Z,12.80
2023-05-18T06:44:01.533Z,12.90
2023-05-18T06:46:28.869Z,12.80
2023-05-18T06:48:56.549Z,12.50
2023-05-18T06:51:23.798Z,12.70
2023-05-18T06:53:51.096Z,13.20
2023-05-18T06:56:18.824Z,13.30
2023-05-18T06:58:47.989Z,13.30
2023-05-18T07:01:19.479Z,13.40
2023-05-18T07:03:51.760Z,13.50
2023-05-18T07:06:26.645Z,13.30
2023-05-18T07:09:01.098Z,13.50
2023-05-18T07:11:36.323Z,13.50
2023-05-18T07:14:08.761Z,13.50
2023-05-18T07:16:38.195Z,13.60
2023-05-18T07:19:08.377Z,13.40
2023-05-18T07:21:35.750Z,13.60
2023-05-18T07:24:02.980Z,13.80
2023-05-18T07:26:30.182Z,14.00
2023-05-18T07:28:57.402Z,14.20
2023-05-18T07:31:24.718Z,13.80
2023-05-18T07:33:51.999Z,14.00
2023-05-18T07:36:19.257Z,14.10
2023-05-18T07:38:46.487Z,14.20
2023-05-18T07:41:13.740Z,14.30
2023-05-18T07:43:40.976Z,14.50
2023-05-18T07:46:08.179Z,14.60
2023-05-18T07:48:36.379Z,15.00
2023-05-18T07:51:04.882Z,15.30
2023-05-18T07:53:32.769Z,15.50
2023-05-18T07:56:00.180Z,16.00
2023-05-18T07:58:27.385Z,16.70
2023-05-18T08:00:54.604Z,17.20
2023-05-18T08:03:22.275Z,18.00
2023-05-18T08:05:49.559Z,17.00
2023-05-18T08:08:16.814Z,18.30
2023-05-18T08:10:44.248Z,17.50
2023-05-18T08:13:11.744Z,18.60
2023-05-18T08:15:41.134Z,18.30
2023-05-18T08:18:08.447Z,18.90
2023-05-18T08:20:36.040Z,19.20
2023-05-18T08:23:03.299Z,19.40
2023-05-18T08:25:30.750Z,19.40
2023-05-18T08:27:58.283Z,20.00
2023-05-18T08:30:26.817Z,19.90
2023-05-18T08:32:54.080Z,18.30
2023-05-18T08:35:21.306Z,17.70
2023-05-18T08:37:50.093Z,20.10
2023-05-18T08:40:17.680Z,19.60
2023-05-18T08:42:52.426Z,20.70
2023-05-18T08:45:50.633Z,20.20
2023-05-18T08:48:18.157Z,20.20
2023-05-18T08:50:46.267Z,21.30
2023-05-18T08:53:13.593Z,21.30
2023-05-18T08:55:42.000Z,22.50
2023-05-18T08:58:10.144Z,21.60
2023-05-18T09:00:37.800Z,20.50
2023-05-18T09:03:05.496Z,22.00
2023-05-18T09:05:33.339Z,21.60
2023-05-18T09:08:01.301Z,22.50
2023-05-18T09:10:28.913Z,20.20
2023-05-18T09:12:56.902Z,21.80
2023-05-18T09:15:25.509Z,21.60
2023-05-18T09:17:52.851Z,19.90
2023-05-18T09:20:21.100Z,20.10
2023-05-18T09:22:51.342Z,20.90
2023-05-18T09:25:24.691Z,21.00
2023-05-18T09:27:55.704Z,21.50
2023-05-18T09:30:30.817Z,21.60
2023-05-18T09:33:04.377Z,19.80
2023-05-18T09:35:42.108Z,20.00
2023-05-18T09:38:27.507Z,20.40
2023-05-18T09:40:55.411Z,19.90
2023-05-18T09:43:51.523Z,20.40
2023-05-18T09:49:51.604Z,20.30
2023-05-18T09:52:18.852Z,20.30
2023-05-18T09:55:04.534Z,19.60
2023-05-18T09:57:31.787Z,19.70
2023-05-18T10:00:11.620Z,20.10
2023-05-18T10:02:41.249Z,19.40
2023-05-18T10:05:35.750Z,20.20
2023-05-18T10:08:03.617Z,20.00
2023-05-18T10:10:31.171Z,19.90
2023-05-18T10:12:58.971Z,19.40
2023-05-18T10:15:26.450Z,19.70
2023-05-18T10:17:56.964Z,19.70
2023-05-18T10:20:26.759Z,19.80
2023-05-18T10:22:56.098Z,20.00
2023-05-18T10:25:26.264Z,19.40
2023-05-18T10:27:57.922Z,19.90
2023-05-18T10:30:25.340Z,20.00
2023-05-18T10:32:52.977Z,20.00
2023-05-18T10:35:21.750Z,19.70
2023-05-18T10:37:50.139Z,19.90
2023-05-18T10:40:18.686Z,19.70
2023-05-18T10:42:46.684Z,19.90
2023-05-18T10:45:15.036Z,19.80
2023-05-18T10:47:44.531Z,19.80
2023-05-18T10:50:11.977Z,20.40
2023-05-18T10:52:39.307Z,20.50
2023-05-18T10:55:08.011Z,20.70
2023-05-18T10:57:41.073Z,21.00
2023-05-18T11:00:10.447Z,20.50
2023-05-18T11:02:42.314Z,20.60
2023-05-18T11:05:10.826Z,19.90
2023-05-18T11:07:38.651Z,20.00
2023-05-18T11:10:10.581Z,19.70
2023-05-18T11:12:41.436Z,20.20
2023-05-18T11:15:09.098Z,19.90
2023-05-18T11:17:36.729Z,20.40
2023-05-18T11:20:11.801Z,19.80
2023-05-18T11:22:57.284Z,20.40
2023-05-18T11:25:27.190Z,20.80
2023-05-18T11:27:56.561Z,21.40
2023-05-18T11:30:40.452Z,21.70
2023-05-18T11:33:12.334Z,21.60
2023-05-18T11:35:58.629Z,21.30
2023-05-18T11:38:48.955Z,20.80
2023-05-18T11:41:36.536Z,20.90
2023-05-18T11:44:16.283Z,21.10
2023-05-18T11:46:58.451Z,21.00
2023-05-18T11:49:27.987Z,20.50
2023-05-18T11:52:19.338Z,20.10
2023-05-18T11:54:50.582Z,19.70
2023-05-18T11:57:19.043Z,20.10
2023-05-18T11:59:54.400Z,20.10
2023-05-18T12:02:24.672Z,20.10
2023-05-18T12:04:54.558Z,19.80
2023-05-18T12:07:23.690Z,20.20
2023-05-18T12:09:51.050Z,20.20
2023-05-18T12:12:24.117Z,20.30
2023-05-18T12:15:11.279Z,20.00
2023-05-18T12:17:49.280Z,19.60
2023-05-18T12:20:28.271Z,19.60
2023-05-18T12:22:56.950Z,19.40
2023-05-18T12:25:26.873Z,19.40
2023-05-18T12:27:54.952Z,20.30
2023-05-18T12:30:24.633Z,19.80
2023-05-18T12:32:53.136Z,20.30
2023-05-18T12:35:27.841Z,19.90
2023-05-18T12:37:56.502Z,19.90
2023-05-18T12:40:23.854Z,20.30
2023-05-18T12:43:03.076Z,20.60
2023-05-18T12:45:32.617Z,21.00
2023-05-18T12:48:11.122Z,20.80
2023-05-18T12:50:50.776Z,20.40
2023-05-18T12:53:18.527Z,20.30
2023-05-18T12:55:46.045Z,20.20
2023-05-18T12:58:16.579Z,20.30
2023-05-18T13:00:45.715Z,20.20
2023-05-18T13:03:17.822Z,19.80
2023-05-18T13:05:46.584Z,19.80
2023-05-18T13:08:22.052Z,20.20
2023-05-18T13:11:01.217Z,19.80
2023-05-18T13:13:36.778Z,19.50
2023-05-18T13:16:04.088Z,19.30
2023-05-18T13:18:31.321Z,19.40
2023-05-18T13:20:58.768Z,19.40
2023-05-18T13:23:28.760Z,19.80
2023-05-18T13:25:58.226Z,19.90
2023-05-18T13:28:26.863Z,20.00
2023-05-18T13:30:54.115Z,19.10
2023-05-18T13:33:21.417Z,19.50
2023-05-18T13:35:49.862Z,19.50
2023-05-18T13:38:17.416Z,20.00
2023-05-18T13:40:46.364Z,20.20
2023-05-18T13:43:13.996Z,19.90
2023-05-18T13:45:41.729Z,20.30
2023-05-18T13:48:10.652Z,19.90
2023-05-18T13:50:39.319Z,19.90
2023-05-18T13:53:07.118Z,19.90
2023-05-18T13:55:34.685Z,19.70
2023-05-18T13:58:01.925Z,19.60
2023-05-18T14:00:29.199Z,19.40
2023-05-18T14:02:56.778Z,19.60
2023-05-18T14:05:24.593Z,19.50
2023-05-18T14:07:52.506Z,19.10
2023-05-18T14:10:20.303Z,18.80
2023-05-18T14:12:47.791Z,19.20
2023-05-18T14:15:15.488Z,19.30
2023-05-18T14:17:43.657Z,19.40
2023-05-18T14:20:12.063Z,19.20
2023-05-18T14:22:39.778Z,19.10
2023-05-18T14:25:07.206Z,18.90
2023-05-18T14:27:34.458Z,19.10
2023-05-18T14:30:01.688Z,19.10
2023-05-18T14:32:29.018Z,18.70
2023-05-18T14:34:57.894Z,19.00
2023-05-18T14:37:25.514Z,19.20
2023-05-18T14:39:52.782Z,19.00
2023-05-18T14:42:20.069Z,19.20
2023-05-18T14:44:47.434Z,19.10
2023-05-18T14:47:14.750Z,18.70
2023-05-18T14:49:42.021Z,18.90
2023-05-18T14:52:09.299Z,19.00
2023-05-18T14:54:36.588Z,19.10
2023-05-18T14:57:03.948Z,19.30
2023-05-18T14:59:31.245Z,19.30
2023-05-18T15:01:58.693Z,19.10
2023-05-18T15:04:26.213Z,19.50
2023-05-18T15:06:53.465Z,19.50
2023-05-18T15:09:20.697Z,19.50
2023-05-18T15:11:47.909Z,18.90
2023-05-18T15:14:15.134Z,18.90
2023-05-18T15:16:42.784Z,19.00
2023-05-18T15:19:10.207Z,19.20
2023-05-18T15:21:37.508Z,18.90
2023-05-18T15:24:04.946Z,19.00
2023-05-18T15:26:32.429Z,19.00
2023-05-18T15:28:59.653Z,18.80
2023-05-18T15:31:27.037Z,18.80
2023-05-18T15:33:54.313Z,18.80
2023-05-18T15:36:21.830Z,19.10
2023-05-18T15:38:49.086Z,18.90
2023-05-18T15:41:16.386Z,18.60
2023-05-18T15:43:44.360Z,18.30
2023-05-18T15:46:11.631Z,17.90
2023-05-18T15:48:38.848Z,18.40
2023-05-18T15:51:06.146Z,18.50
2023-05-18T15:53:33.360Z,18.60
2023-05-18T15:56:00.581Z,18.70
2023-05-18T15:58:28.235Z,18.80
2023-05-18T16:00:55.503Z,18.80
2023-05-18T16:03:22.848Z,18.90
2023-05-18T16:05:50.459Z,18.80
2023-05-18T16:08:17.669Z,18.70
2023-05-18T16:10:44.908Z,18.70
2023-05-18T16:13:12.167Z,19.10
2023-05-18T16:15:39.368Z,18.90
2023-05-18T16:18:06.767Z,18.60
2023-05-18T16:20:34.312Z,18.40
2023-05-18T16:23:01.725Z,18.40
2023-05-18T16:25:29.102Z,18.50
2023-05-18T16:27:56.424Z,18.70
2023-05-18T16:30:23.713Z,18.10
2023-05-18T16:32:51.017Z,18.40
2023-05-18T16:35:18.383Z,18.70
2023-05-18T16:37:45.612Z,18.70
2023-05-18T16:40:13.026Z,18.40
2023-05-18T16:42:40.564Z,18.70
2023-05-18T16:45:08.035Z,18.10
2023-05-18T16:47:35.298Z,18.30
2023-05-18T16:50:02.574Z,18.40
2023-05-18T16:52:29.842Z,18.40
2023-05-18T16:54:57.113Z,18.50
2023-05-18T16:57:27.309Z,18.30
2023-05-18T16:59:54.767Z,18.40
2023-05-18T17:02:24.325Z,18.60
2023-05-18T17:04:51.686Z,18.60
2023-05-18T17:07:19.282Z,18.50
2023-05-18T17:09:46.598Z,18.40
2023-05-18T17:12:13.845Z,18.20
2023-05-18T17:14:41.134Z,18.20
2023-05-18T17:17:08.472Z,18.30
2023-05-18T17:19:36.199Z,18.30
2023-05-18T17:22:04.565Z,18.50
2023-05-18T17:24:31.863Z,18.70
2023-05-18T17:26:59.225Z,18.70
2023-05-18T17:29:27.207Z,18.60
2023-05-18T17:31:54.636Z,18.20
2023-05-18T17:34:22.733Z,18.10
2023-05-18T17:36:50.451Z,18.40
2023-05-18T17:39:17.808Z,18.40
2023-05-18T17:41:45.109Z,18.50
2023-05-18T17:44:17.229Z,18.20
2023-05-18T17:46:45.694Z,18.10
2023-05-18T17:49:13.541Z,18.00
2023-05-18T17:51:41.448Z,18.00
2023-05-18T17:54:09.493Z,17.60
2023-05-18T17:56:37.129Z,18.10
2023-05-18T17:59:05.584Z,18.10
2023-05-18T18:01:33.827Z,18.30
2023-05-18T18:04:01.470Z,18.30
2023-05-18T18:06:28.800Z,18.00
2023-05-18T18:08:57.590Z,18.10
2023-05-18T18:11:25.896Z,18.20
2023-05-18T18:13:53.754Z,18.30
2023-05-18T18:16:21.536Z,18.30
2023-05-18T18:18:49.114Z,18.30
2023-05-18T18:21:16.429Z,18.10
2023-05-18T18:23:43.684Z,18.20
2023-05-18T18:26:10.967Z,18.20
2023-05-18T18:28:38.339Z,18.20
2023-05-18T18:31:05.633Z,18.20
2023-05-18T18:33:33.467Z,18.10
2023-05-18T18:36:01.003Z,18.10
2023-05-18T18:38:28.923Z,17.90
2023-05-18T18:41:01.330Z,18.10
2023-05-18T18:43:29.196Z,18.00
2023-05-18T18:45:59.397Z,18.20
2023-05-18T18:48:26.915Z,18.20
2023-05-18T18:50:54.270Z,18.20
2023-05-18T18:53:21.607Z,18.10
2023-05-18T18:55:48.997Z,18.20
2023-05-18T18:58:16.476Z,17.90
2023-05-18T19:00:43.936Z,17.70
2023-05-18T19:03:14.218Z,17.30
2023-05-18T19:05:41.636Z,17.50
2023-05-18T19:08:09.108Z,17.40
2023-05-18T19:10:36.575Z,17.80
2023-05-18T19:13:06.596Z,17.50
2023-05-18T19:15:34.891Z,17.30
2023-05-18T19:18:02.994Z,17.40
2023-05-18T19:20:30.387Z,17.30
2023-05-18T19:22:57.987Z,17.40
2023-05-18T19:25:26.114Z,17.60
2023-05-18T19:27:54.113Z,17.70
2023-05-18T19:30:22.011Z,17.90
2023-05-18T19:32:50.550Z,17.80
2023-05-18T19:35:19.923Z,17.80
2023-05-18T19:37:47.991Z,17.60
2023-05-18T19:40:16.836Z,17.50
2023-05-18T19:42:44.174Z,17.40
2023-05-18T19:45:11.517Z,17.40
2023-05-18T19:47:38.767Z,17.60
2023-05-18T19:50:07.086Z,17.50
2023-05-18T19:52:34.376Z,17.50
2023-05-18T19:55:02.234Z,17.70
2023-05-18T19:57:29.758Z,17.20
2023-05-18T19:59:57.889Z,17.50
2023-05-18T20:02:25.334Z,17.60
2023-05-18T20:04:53.579Z,17.40
2023-05-18T20:07:22.448Z,17.50
2023-05-18T20:09:49.848Z,17.40
2023-05-18T20:12:17.088Z,17.40
2023-05-18T20:14:45.756Z,17.20
2023-05-18T20:17:13.907Z,17.20
2023-05-18T20:19:45.402Z,17.30
2023-05-18T20:22:12.629Z,17.30
2023-05-18T20:24:43.320Z,17.30
2023-05-18T20:27:13.877Z,17.10
2023-05-18T20:29:41.493Z,17.00
2023-05-18T20:32:08.716Z,16.90
2023-05-18T20:34:35.961Z,16.80
2023-05-18T20:37:03.992Z,16.80
2023-05-18T20:39:31.748Z,16.90
2023-05-18T20:41:59.489Z,17.20
2023-05-18T20:44:27.971Z,17.00
2023-05-18T20:46:55.276Z,17.30
2023-05-18T20:49:24.791Z,16.90
2023-05-18T20:51:52.200Z,17.10
2023-05-18T20:54:21.118Z,17.10
2023-05-18T20:56:48.571Z,17.20
2023-05-18T20:59:16.628Z,17.20
2023-05-18T21:01:43.991Z,16.90
2023-05-18T21:04:13.202Z,17.40
2023-05-18T21:06:43.692Z,17.90
2023-05-18T21:09:11.622Z,18.10
2023-05-18T21:11:39.780Z,18.20
2023-05-18T21:14:07.064Z,18.10
2023-05-18T21:16:34.687Z,18.00
2023-05-18T21:19:02.079Z,17.50
2023-05-18T21:21:29.484Z,17.00
2023-05-18T21:23:56.742Z,17.20
2023-05-18T21:26:24.027Z,17.20
2023-05-18T21:28:51.248Z,17.10
2023-05-18T21:31:18.604Z,16.90
2023-05-18T21:33:48.712Z,16.90
2023-05-18T21:36:16.414Z,17.20
2023-05-18T21:38:43.759Z,17.10
2023-05-18T21:41:11.000Z,17.10
2023-05-18T21:43:38.201Z,17.20
2023-05-18T21:46:07.789Z,17.10
2023-05-18T21:48:36.492Z,17.20
2023-05-18T21:51:04.399Z,17.10
2023-05-18T21:53:31.692Z,16.90
2023-05-18T21:55:58.958Z,16.80
2023-05-18T21:58:26.281Z,16.90
2023-05-18T22:00:53.619Z,16.50
2023-05-18T22:03:22.102Z,16.50
2023-05-18T22:05:49.712Z,16.50
2023-05-18T22:08:16.925Z,16.80
2023-05-18T22:10:44.206Z,16.70
2023-05-18T22:13:11.421Z,16.60
2023-05-18T22:15:40.248Z,16.50
2023-05-18T22:18:08.016Z,16.50
2023-05-18T22:20:35.281Z,16.40
2023-05-18T22:23:03.493Z,16.30
2023-05-18T22:25:30.949Z,16.50
2023-05-18T22:27:58.250Z,16.40
2023-05-18T22:30:27.662Z,16.40
2023-05-18T22:32:55.403Z,16.40
2023-05-18T22:35:22.714Z,16.40
2023-05-18T22:37:49.940Z,16.10
2023-05-18T22:40:17.164Z,16.10
2023-05-18T22:42:44.383Z,16.20
2023-05-18T22:45:11.868Z,15.80
2023-05-18T22:47:39.545Z,16.20
2023-05-18T22:50:07.758Z,16.20
2023-05-18T22:52:36.645Z,16.20
2023-05-18T22:55:05.421Z,16.20
2023-05-18T22:57:32.836Z,16.10
2023-05-18T23:00:00.073Z,16.30
2023-05-18T23:02:28.116Z,16.30
2023-05-18T23:04:55.362Z,16.00
2023-05-18T23:07:24.598Z,16.00
2023-05-18T23:09:54.798Z,15.80
2023-05-18T23:12:22.327Z,16.00
2023-05-18T23:14:54.733Z,16.00
2023-05-18T23:17:23.035Z,16.30
2023-05-18T23:19:53.713Z,16.30
2023-05-18T23:22:21.355Z,16.40
2023-05-18T23:24:48.584Z,16.10
2023-05-18T23:27:15.997Z,16.00
2023-05-18T23:29:43.713Z,16.10
2023-05-18T23:32:10.976Z,15.90
2023-05-18T23:34:38.350Z,16.00
2023-05-18T23:37:06.726Z,16.20
2023-05-18T23:39:34.201Z,16.00
2023-05-18T23:42:01.868Z,16.00
2023-05-18T23:44:29.698Z,15.90
2023-05-18T23:46:57.265Z,15.70
2023-05-18T23:49:24.847Z,15.80
2023-05-18T23:51:53.360Z,15.80
2023-05-18T23:54:21.154Z,15.80
2023-05-18T23:56:51.080Z,15.40
2023-05-18T23:59:18.785Z,15.40
